Harleysville, PA (19438)

8:03 PM EDT on May 22, 2015 (GMT -0400)
Store Road | | Change Station
CLOSE
Current Station
Personal Weather Station
Location: Harleysville, PA
Elevation: 253 ft
Nearby Weather Stations

Elev 253 ft 40.24 °N, 75.37 °W | Updated 10 seconds ago

Clear
Clear
68.6 °F
Feels Like 68.6 °F
N
15.0
Wind Variable Wind from WNW
Gusts 15.0 mph

Today
High -- | Low -- °F
--% Chance of Precip.
Yesterday
High -- | Low -- °F
Precip. -- in
5:40 AM 8:16 PM
Waxing Crescent, 25% visible
Pressure 30.05 in
Visibility 10.0 miles
Clouds Clear
Dew Point 38 °F
Humidity 32%
Rainfall 0.00 in
Snow Depth Not available.
UV 0 out of 12
Pollen 8.80 out of 12
Air Quality Not available.
Flu Activity Sporadic
METAR KPTW 222354Z AUTO 28006KT 10SM CLR 20/01 A3005 RMK AO2 SLP174 T02000006 10228 20200 53017

More Conditions Fewer Conditions

Pressure 30.05 in
Visibility 10.0 miles
Clouds Clear
Dew Point 38 °F
Humidity 32%
Rainfall 0.00 in
Snow Depth Not available.
UV 0 out of 12
Pollen 8.80 out of 12
Air Quality Not available.
Flu Activity Sporadic
METAR KPTW 222354Z AUTO 28006KT 10SM CLR 20/01 A3005 RMK AO2 SLP174 T02000006 10228 20200 53017

More Conditions Fewer Conditions

10-Day Weather Forecast

Almanac

Astronomy

May. 22, 2015 Rise Set
Actual Time
Civil Twilight
Nautical Twilight
Astronomical Twilight
Moon
Length of Visible Light
Length of Day
Tomorrow will be .
, % of the Moon is Illuminated

Today's Extremes

State Highs State Lows

Community

WunderPhotos

Upload Photos

1,823,339 photos uploaded!

WunderBlogs® & News

Nearby

Air Quality

  Air Quality AQ Index Pollutant
Not available.

Snow Depth

Station Depth Elevation

Earthquake Activity

City Distance Mag. Time & Date
Minimum magnitude displayed is 2.5.

Coastal Water Temperatures

Place Temperature

Stations

Nearby Weather Stations

Station Location Temp. Windchill Dew Point Humidity Wind Precip. Elev Updated Type